map of HOF home
HOF - Airport
Location
City:  Hofuf, Saudi Arabia
Near (Alt.):Al-Ahsa
Name:Al-Ahsa International Airport
ICAO:OEAH
IATA:HOF

Details
Type:Airport (Aerodrome, Airfield)
Use:Public/Civil, International (customs port of entry)
Latitude:2517'10"N (25.286111)
Longitude:4929'10"E (49.486111)
Elevation:588 ft (179 m)
Variation:2.78E (WMM2015 magnetic declination)
0.05 annual change
Runways:1
Longest:10039 × 148 ft (3060 × 45 m), paved

Time
Time Zone:UTC+3
Local Time:

Weather
METAR:OEAH 192000Z 00000KT CAVOK 32/19 Q1006 NOSIG
TAF:OEAH 191100Z 1912/2018 08010KT CAVOK
BECMG 1918/1920 VRB03KT
TEMPO 2000/2006 3000 BR HZ NSC

Related Locations
Nearby:
Farthest:GMR: 12128 mi / 19518 km
Mangareva [Totegegie], Gambier Islands, PF

Find:

   beyond  
but within

Other Information
Maps:
NOTAMs:
Links:
Sources:

  
  • flag of Saudi Arabia
  

Sectional Chart

Flight Planning
at skyvector.com

Satellite Image

Google Maps Satellite view

 

Copyright © 2004-2018 Karl L. Swartz. All rights reserved.
The Great Circle Mapper name and logo are trademarks of the Great Circle Mapper.
All other trademarks mentioned herein belong to their respective owners.
Please see credits for attibutions and further copyright information.

  Follow gcmap on Facebook Follow gcmap on Twitter Follow gcmap on Google+ GCmap on LinkedIn

hCard Microformat

Geo Microformat